Kalamazoo, MI (49001)

7:42 PM EDT on July 30, 2016 (GMT -0400)
Lawndale Ave | | Change Station

Elev 801 ft 42.28 °N, 85.48 °W | Updated 3 seconds ago

Mostly Cloudy
Mostly Cloudy
72.1 °F
Feels Like 70 °F
N
0.0
Wind Variable Wind from NE
Gusts 0.0 mph

Today
High -- | Low -- °F
--% Chance of Precip.
Yesterday
High -- | Low -- °F
Precip. -- in
Pressure 29.98 in
Visibility 10.0 miles
Clouds Mostly Cloudy 1700 ft
Mostly Cloudy 2200 ft
Heat Index 70 °F
Dew Point 68 °F
Humidity 87%
Rainfall 2.15 in
Snow Depth Not available.
6:33 AM 9:02 PM
Waning Crescent, 10% visible
METAR KAZO 302253Z 36009KT 10SM BKN017 BKN022 22/18 A2998 RMK AO2 SLP150 T02220183
Pressure 29.98 in
Visibility 10.0 miles
Clouds Mostly Cloudy 1700 ft
Mostly Cloudy 2200 ft
Heat Index 70 °F
Dew Point 68 °F
Humidity 87%
Rainfall 2.15 in
Snow Depth Not available.
6:33 AM 9:02 PM
Waning Crescent, 10% visible
METAR KAZO 302253Z 36009KT 10SM BKN017 BKN022 22/18 A2998 RMK AO2 SLP150 T02220183

10-Day Weather Forecast

Almanac

Astronomy

Jul. 30, 2016 Rise Set
Actual Time
Civil Twilight
Nautical Twilight
Astronomical Twilight
Moon
Length of Visible Light
Length of Day
Tomorrow will be .
, % of the Moon is Illuminated

Today's Extremes

State Highs State Lows

Community

WunderPhotos

Upload Photos

1,928,680 photos uploaded!

WunderBlog® & News

Nearby

Air Quality

  Air Quality AQ Index Pollutant
Not available.

Snow Depth

Station Depth Elevation

Earthquake Activity

City Distance Mag. Time & Date
Minimum magnitude displayed is 2.5.

Coastal Water Temperatures

Place Temperature

Stations

Nearby Weather Stations

Station Location Temp. Windchill Dew Point Humidity Wind Precip. Elev Updated Type
                   

Watches & Warnings

There are currently no watches in effect.